Aeroporto :
LOGIN :

Iscrizione | Disclaimer

   EN    FR    IT 

 










Sommario :    VFR   VFR Marginale   IFR   IFR Intensivo   IFR Molto Intensivo
Visibilità : 
Base nubi : 
>= 8 km
>= 3000ft
5 / 8 km
1000 / 3000 ft
1500m / 5 km
500 / 1000 ft
800 / 1500m
200 / 500 ft
< 800m
< 200 ft
Simboli :   Temporali  Nebbia  Neve Forte  Precipitazioni Forti  Vento > 20 kt
SIGMETs :   Varie  Temporali  Ghiacco  Turbolenza  Onda orograficha  Ceneri Vulcaniche






- Altitudine del aeroporto : 44 ft
- Codice IATA : SOU


EGHI - Southampton

ULTIMO METAR :
  • 220950Z 31009KT 260V360 9999 FEW028 BKN046 20/09 Q1013

METARs OBSOLETI :
  • 220920Z 31008KT 260V360 9999 FEW028 BKN046 19/09 Q1013
  • 220850Z 28008KT 250V330 9999 SCT024 18/11 Q1013
  • 220820Z 28007KT 240V320 9999 BKN019 18/12 Q1012
  • 220750Z 29007KT 250V320 9999 BKN015 16/12 Q1012
  • 220720Z 27006KT 240V310 9999 BKN014 16/13 Q1012
  • 220650Z 26006KT 230V330 9999 BKN012 16/13 Q1012
  • 220620Z 27005KT 240V300 9999 BKN010 15/13 Q1012
  • 220550Z 26004KT 9999 SCT010 15/13 Q1011
  • 220520Z VRB01KT 9999 FEW008 BKN028 15/13 Q1011

TAF TAF EGHI
Valido dal 22 a 09 ore il 22 a 18 ore UTC


220758Z 2209/2218 31006KT 9999 SCT020
PROB30
TEMPO 2209/2211 BKN014
BECMG 2211/2214 25010KT
ATIS : +44 23 8062 7103



MetMap, La meteo Aeronautica in un colpo d'occhio ! - Copyright ORBIFLY Dicembre 2007 - Disclaimer

ORBIFLY MET'MAP TEAM :

Programmazione e sviluppo : Alexandra Zaïnal
Concezione : Baudouin d'Aumeries
Supporto tecnico e logistico : Manuel Goepfert
Aiuto : Marc-Olivier Méhu
Aiuto per la traduzione : Arnaldo La Scala




FONTI E CREDITI :

   NOAA